Terminal Aerodrome Forecast
Issued by NWS Rapid City, SD

Home | Current Version | Previous Version | Graphics & Text | Print | Product List | Glossary On
Versions: 1 2 3 4 5 6 7 8 9 10 11 12 13 14 15
000
FTUS43 KUNR 250520
TAFRAP
TAF
KRAP 250520Z 2506/2606 04008KT P6SM FEW120
     FM252200 36010KT P6SM SCT060 BKN080
      TEMPO 2523/2603 P6SM TSRA BKN060CB=

USA.gov is the U.S. government's official web portal to all federal, state and local government web resources and services.